METAR Data
IDs: Format: Raw Decoded Include TAF

Data at: 0906 UTC 10 Dec 2022

EPSY 100900Z 02006KT 9999 BKN009 OVC013 M00/M01 Q1008